Time;durP1;ratioP1;P1;durP2;ratioP2;P2;SDS_P1;SDS_P2;PMS_P1;PMS_P2;Temp;Humidity;BMP_temperature;BMP_pressure;BME280_temperature;BME280_humidity;BME280_pressure;Samples;Min_cycle;Max_cycle;Signal;HPM_P1;HPM_P2
2022/07/08 00:00:58;;;;;;;3.85;2.60;;;18.20;99.90;;;;;;6148954;23;20020;-59
2022/07/08 00:04:02;;;;;;;5.30;2.92;;;18.30;99.90;;;;;;6150889;23;20028;-58
2022/07/08 00:07:07;;;;;;;6.35;2.25;;;18.30;99.90;;;;;;6150495;23;20465;-59
2022/07/08 00:10:11;;;;;;;5.13;2.38;;;18.30;99.90;;;;;;6148980;23;20357;-61
2022/07/08 00:13:14;;;;;;;5.00;2.30;;;18.40;99.90;;;;;;6149518;23;20358;-60
2022/07/08 00:16:18;;;;;;;4.28;2.40;;;18.40;99.90;;;;;;6151190;23;20188;-61
2022/07/08 00:19:22;;;;;;;5.93;2.35;;;18.40;99.90;;;;;;6153059;23;20038;-59
2022/07/08 00:22:26;;;;;;;5.55;2.30;;;18.50;99.90;;;;;;6152851;23;20017;-57
2022/07/08 00:25:30;;;;;;;4.22;2.50;;;18.40;99.90;;;;;;6151457;23;20017;-60
2022/07/08 00:28:34;;;;;;;6.70;2.88;;;18.30;99.90;;;;;;6151196;23;20020;-59
2022/07/08 00:31:38;;;;;;;5.18;2.25;;;18.30;99.90;;;;;;6148064;23;20020;-56
2022/07/08 00:34:42;;;;;;;6.10;2.33;;;18.30;99.90;;;;;;6152614;23;20025;-61
2022/07/08 00:37:46;;;;;;;5.03;2.30;;;18.30;99.90;;;;;;6147984;23;20020;-60
2022/07/08 00:40:50;;;;;;;3.58;2.28;;;18.20;99.90;;;;;;6148329;23;20021;-61
2022/07/08 00:43:54;;;;;;;4.88;2.20;;;18.20;99.90;;;;;;6149808;23;20017;-57
2022/07/08 00:46:58;;;;;;;3.97;2.47;;;18.10;99.90;;;;;;6148923;23;20016;-61
2022/07/08 00:50:03;;;;;;;5.18;2.72;;;17.90;99.90;;;;;;6148481;23;20573;-61
2022/07/08 00:53:07;;;;;;;3.60;2.60;;;17.60;99.90;;;;;;6151765;23;20025;-61
2022/07/08 00:56:12;;;;;;;7.43;2.30;;;17.60;99.90;;;;;;6149966;23;20024;-61
2022/07/08 00:59:16;;;;;;;4.70;2.63;;;17.60;99.90;;;;;;6148883;23;20024;-61
2022/07/08 01:02:20;;;;;;;5.28;2.50;;;17.50;99.90;;;;;;6148229;23;20021;-57
2022/07/08 01:05:24;;;;;;;3.20;2.78;;;17.30;99.90;;;;;;6149071;23;20017;-61
2022/07/08 01:08:29;;;;;;;4.55;3.33;;;17.20;99.90;;;;;;6147901;23;20020;-61
2022/07/08 01:11:33;;;;;;;7.45;3.40;;;17.10;99.90;;;;;;6149157;23;20024;-62
2022/07/08 01:14:37;;;;;;;8.48;3.40;;;16.90;99.90;;;;;;6149701;23;20020;-62
2022/07/08 01:17:45;;;;;;;4.68;3.47;;;16.80;99.90;;;;;;6148747;23;20357;-62
2022/07/08 01:20:50;;;;;;;4.47;3.60;;;16.70;99.90;;;;;;6147694;23;20353;-61
2022/07/08 01:23:54;;;;;;;4.97;3.53;;;16.70;99.90;;;;;;6150084;23;20465;-60
2022/07/08 01:26:58;;;;;;;14.38;4.15;;;16.70;99.90;;;;;;6148193;23;20020;-61
2022/07/08 01:30:03;;;;;;;8.18;4.20;;;16.70;99.90;;;;;;6147440;23;20036;-60
2022/07/08 01:33:08;;;;;;;4.93;3.22;;;16.80;99.90;;;;;;6150283;23;20028;-60
2022/07/08 01:36:12;;;;;;;8.05;3.50;;;16.80;99.90;;;;;;6150210;23;20054;-60
2022/07/08 01:39:16;;;;;;;6.60;3.22;;;16.80;99.90;;;;;;6148662;23;20354;-62
2022/07/08 01:42:21;;;;;;;8.10;3.60;;;16.70;99.90;;;;;;6148747;23;20020;-62
2022/07/08 01:45:24;;;;;;;7.10;3.63;;;16.60;99.90;;;;;;6149552;23;20020;-60
2022/07/08 01:48:28;;;;;;;7.93;3.30;;;16.60;99.90;;;;;;6149128;23;20373;-60
2022/07/08 01:51:32;;;;;;;8.90;3.47;;;16.60;99.90;;;;;;6147855;23;20017;-60
2022/07/08 01:54:36;;;;;;;8.13;4.32;;;16.60;99.90;;;;;;6148948;23;20044;-60
2022/07/08 01:57:40;;;;;;;9.63;4.03;;;16.40;99.90;;;;;;6149019;23;20362;-59
2022/07/08 02:00:44;;;;;;;5.43;4.60;;;16.30;99.90;;;;;;6147584;23;20025;-60
2022/07/08 02:03:48;;;;;;;7.10;3.72;;;16.40;99.90;;;;;;6148681;23;20020;-59
2022/07/08 02:06:52;;;;;;;8.88;4.00;;;16.30;99.90;;;;;;6148571;23;20016;-61
2022/07/08 02:09:58;;;;;;;7.07;3.95;;;16.20;99.90;;;;;;6148353;23;20472;-61
2022/07/08 02:13:02;;;;;;;7.03;3.67;;;16.20;99.90;;;;;;6149987;23;20473;-61
2022/07/08 02:16:06;;;;;;;3.70;3.33;;;16.30;99.90;;;;;;6149367;23;20469;-59
2022/07/08 02:19:11;;;;;;;4.18;3.33;;;16.30;99.90;;;;;;6148788;23;20350;-60
2022/07/08 02:22:17;;;;;;;7.72;3.35;;;16.30;99.90;;;;;;6148614;23;20024;-56
2022/07/08 02:25:20;;;;;;;9.57;3.38;;;16.40;99.90;;;;;;6148592;23;20016;-61
2022/07/08 02:28:25;;;;;;;4.70;3.42;;;16.50;99.90;;;;;;6148985;23;20008;-60
2022/07/08 02:31:29;;;;;;;7.75;3.40;;;16.50;99.90;;;;;;6147007;23;20358;-61
2022/07/08 02:34:33;;;;;;;3.58;2.92;;;16.60;99.90;;;;;;6149939;23;20362;-60
2022/07/08 02:37:36;;;;;;;4.57;3.38;;;16.70;99.90;;;;;;6148806;23;20020;-60
2022/07/08 02:40:40;;;;;;;4.03;3.13;;;16.70;99.90;;;;;;6148814;23;20016;-61
2022/07/08 02:43:44;;;;;;;6.97;3.53;;;16.70;99.90;;;;;;6149170;23;20170;-59
2022/07/08 02:46:48;;;;;;;3.72;3.20;;;16.70;99.90;;;;;;6151769;23;20045;-60
2022/07/08 02:49:52;;;;;;;4.80;3.40;;;16.70;99.90;;;;;;6150767;23;20041;-61
2022/07/08 02:52:56;;;;;;;7.05;3.55;;;16.70;99.90;;;;;;6148957;23;20021;-61
2022/07/08 02:56:00;;;;;;;6.78;3.17;;;16.70;99.90;;;;;;6152318;23;20025;-61
2022/07/08 02:59:04;;;;;;;8.68;3.40;;;16.70;99.90;;;;;;6151509;23;20025;-60
2022/07/08 03:02:08;;;;;;;3.45;2.97;;;16.70;99.90;;;;;;6148727;23;20016;-61
2022/07/08 03:05:12;;;;;;;5.63;3.25;;;16.70;99.90;;;;;;6151306;23;20021;-60
2022/07/08 03:08:17;;;;;;;5.25;3.20;;;16.60;99.90;;;;;;6150805;23;20377;-61
2022/07/08 03:11:21;;;;;;;6.25;3.53;;;16.50;99.90;;;;;;6148457;23;20549;-61
2022/07/08 03:14:25;;;;;;;4.57;3.50;;;16.40;99.90;;;;;;6150818;23;20020;-62
2022/07/08 03:17:29;;;;;;;5.60;3.47;;;16.30;99.90;;;;;;6148175;23;20013;-60
2022/07/08 03:20:33;;;;;;;4.68;3.50;;;16.20;99.90;;;;;;6149033;23;20016;-62
2022/07/08 03:23:37;;;;;;;10.20;3.63;;;16.10;99.90;;;;;;6148175;23;20016;-61
2022/07/08 03:26:42;;;;;;;4.47;3.50;;;16.00;99.90;;;;;;6150638;23;20021;-61
2022/07/08 03:29:46;;;;;;;5.80;3.95;;;16.00;99.90;;;;;;6150299;23;20021;-57
2022/07/08 03:32:50;;;;;;;6.75;3.92;;;15.90;99.90;;;;;;6148220;23;20021;-61
2022/07/08 03:35:54;;;;;;;5.88;3.97;;;15.90;99.90;;;;;;6150201;23;20021;-61
2022/07/08 03:38:58;;;;;;;6.22;3.85;;;15.90;99.90;;;;;;6149696;23;20020;-57
2022/07/08 03:42:03;;;;;;;7.20;4.00;;;15.90;99.90;;;;;;6148904;23;20050;-57
2022/07/08 03:45:07;;;;;;;4.03;3.28;;;16.00;99.90;;;;;;6149607;23;20473;-62
2022/07/08 03:48:11;;;;;;;6.93;3.60;;;16.10;99.90;;;;;;6148225;23;20025;-61
2022/07/08 03:51:15;;;;;;;5.05;3.60;;;16.10;99.90;;;;;;6149628;23;20020;-62
2022/07/08 03:54:20;;;;;;;8.93;4.30;;;16.10;99.90;;;;;;6149298;23;20016;-58
2022/07/08 03:57:24;;;;;;;5.93;3.60;;;16.20;99.90;;;;;;6149210;23;20012;-57
2022/07/08 04:00:28;;;;;;;7.55;3.53;;;16.30;99.90;;;;;;6148938;23;20028;-60
2022/07/08 04:03:32;;;;;;;4.45;3.58;;;16.40;99.90;;;;;;6148306;23;20012;-61
2022/07/08 04:06:39;;;;;;;4.18;3.25;;;16.40;99.90;;;;;;6149092;23;20032;-62
2022/07/08 04:09:43;;;;;;;4.05;3.35;;;16.50;99.90;;;;;;6148656;23;20350;-61
2022/07/08 04:12:47;;;;;;;5.75;4.35;;;16.60;99.90;;;;;;6148463;23;20065;-60
2022/07/08 04:15:51;;;;;;;7.22;3.72;;;16.70;99.90;;;;;;6148632;23;20024;-61
2022/07/08 04:18:56;;;;;;;7.20;3.80;;;16.60;99.90;;;;;;6148486;23;20017;-62
2022/07/08 04:22:00;;;;;;;7.35;3.63;;;16.60;99.90;;;;;;6149746;23;20025;-62
2022/07/08 04:25:06;;;;;;;8.43;3.92;;;16.60;99.90;;;;;;6148843;23;20009;-59
2022/07/08 04:28:09;;;;;;;7.57;3.90;;;16.60;99.90;;;;;;6148599;23;20481;-62
2022/07/08 04:31:13;;;;;;;9.85;4.20;;;16.50;99.90;;;;;;6149579;23;20029;-60
2022/07/08 04:34:17;;;;;;;5.75;3.95;;;16.60;99.90;;;;;;6147782;23;20389;-62
2022/07/08 04:37:21;;;;;;;7.93;3.78;;;17.70;99.90;;;;;;6148899;23;20016;-62
2022/07/08 04:40:25;;;;;;;7.47;3.35;;;19.80;99.90;;;;;;6148952;23;20024;-61
2022/07/08 04:43:29;;;;;;;5.10;3.08;;;21.50;99.90;;;;;;6148228;23;20012;-61
2022/07/08 04:46:33;;;;;;;9.85;3.40;;;22.10;99.90;;;;;;6149185;23;20017;-61
2022/07/08 04:49:37;;;;;;;9.43;3.50;;;23.40;99.90;;;;;;6148892;23;20017;-62
2022/07/08 04:52:41;;;;;;;4.43;3.22;;;22.20;99.90;;;;;;6149067;23;20024;-61
2022/07/08 04:55:45;;;;;;;4.40;3.08;;;24.30;99.90;;;;;;6148650;23;20041;-60
2022/07/08 04:58:49;;;;;;;7.55;2.95;;;25.90;99.90;;;;;;6149259;23;20053;-60
2022/07/08 05:01:53;;;;;;;4.07;2.60;;;26.10;99.90;;;;;;6149162;23;20057;-62
2022/07/08 05:04:57;;;;;;;5.43;2.65;;;27.10;99.90;;;;;;6148301;23;20472;-58
2022/07/08 05:08:01;;;;;;;5.47;3.40;;;27.90;99.90;;;;;;6148865;23;20013;-60
2022/07/08 05:11:04;;;;;;;4.90;2.50;;;28.80;99.90;;;;;;6149210;23;20025;-59
2022/07/08 05:14:13;;;;;;;4.43;2.50;;;28.90;99.90;;;;;;6148882;23;20036;-57
2022/07/08 05:17:16;;;;;;;6.10;3.13;;;28.20;99.90;;;;;;6148935;23;20017;-59
2022/07/08 05:20:21;;;;;;;3.17;2.22;;;27.90;99.90;;;;;;6147996;23;20024;-59
2022/07/08 05:23:25;;;;;;;8.45;2.97;;;29.00;99.90;;;;;;6147669;23;20020;-59
2022/07/08 05:26:29;;;;;;;5.25;2.53;;;29.20;99.90;;;;;;6148643;23;20021;-59
2022/07/08 05:29:32;;;;;;;3.97;1.90;;;28.10;99.90;;;;;;6148031;23;20060;-60
2022/07/08 05:32:37;;;;;;;5.85;2.10;;;28.70;99.90;;;;;;6148172;23;20019;-60
2022/07/08 05:35:41;;;;;;;5.75;2.42;;;29.50;99.90;;;;;;6147827;23;20024;-58
2022/07/08 05:38:45;;;;;;;5.95;2.10;;;29.70;99.90;;;;;;6147586;23;20358;-62
2022/07/08 05:41:49;;;;;;;6.60;1.80;;;29.90;98.70;;;;;;6146832;23;20020;-61
2022/07/08 05:44:52;;;;;;;7.68;2.28;;;28.30;99.00;;;;;;6147137;23;20017;-60
2022/07/08 05:47:57;;;;;;;3.28;2.00;;;28.60;99.90;;;;;;6148379;23;20013;-59
2022/07/08 05:51:01;;;;;;;4.05;2.45;;;29.80;99.60;;;;;;6148908;23;20020;-57
2022/07/08 05:54:05;;;;;;;3.97;1.88;;;30.70;98.20;;;;;;6147994;23;20024;-58
2022/07/08 05:57:08;;;;;;;5.20;2.00;;;31.30;96.90;;;;;;6148330;23;20028;-59
2022/07/08 06:00:13;;;;;;;2.33;1.33;;;31.40;96.00;;;;;;6149131;23;20028;-59
2022/07/08 06:03:17;;;;;;;3.78;1.80;;;30.60;95.00;;;;;;6147701;23;20017;-61
2022/07/08 06:06:21;;;;;;;4.57;2.35;;;29.70;95.90;;;;;;6149380;23;20016;-62
2022/07/08 06:09:25;;;;;;;3.45;1.70;;;29.40;96.80;;;;;;6154039;23;20372;-58
2022/07/08 06:12:29;;;;;;;5.45;2.10;;;27.40;98.20;;;;;;6150953;23;20399;-60
2022/07/08 06:15:33;;;;;;;4.20;1.70;;;28.10;98.30;;;;;;6147913;23;20020;-59
2022/07/08 06:18:37;;;;;;;4.22;1.63;;;28.60;97.80;;;;;;6151775;23;20029;-58
2022/07/08 06:21:41;;;;;;;4.53;2.17;;;25.50;99.10;;;;;;6149914;23;20024;-59
2022/07/08 06:24:45;;;;;;;4.47;1.90;;;27.00;99.90;;;;;;6146634;23;20021;-60
2022/07/08 06:27:49;;;;;;;4.47;1.63;;;26.60;99.70;;;;;;6148064;23;20020;-58
2022/07/08 06:30:53;;;;;;;3.55;1.67;;;27.20;99.90;;;;;;6148234;23;20461;-57
2022/07/08 06:33:58;;;;;;;6.82;1.70;;;26.20;99.90;;;;;;6151140;23;20020;-57
2022/07/08 06:37:02;;;;;;;2.40;1.65;;;25.40;99.90;;;;;;6147824;23;20024;-58
2022/07/08 06:40:07;;;;;;;3.33;1.75;;;25.60;99.90;;;;;;6149111;23;20475;-60
2022/07/08 06:43:11;;;;;;;8.27;1.90;;;25.40;99.90;;;;;;6153192;23;20017;-62
2022/07/08 06:46:16;;;;;;;3.90;1.70;;;25.80;99.90;;;;;;6222895;22;20341;-59
2022/07/08 06:49:19;;;;;;;6.68;1.42;;;25.80;99.90;;;;;;6148981;23;20484;-62
2022/07/08 06:52:24;;;;;;;6.28;1.33;;;26.80;99.90;;;;;;6148198;23;20024;-57
2022/07/08 06:55:28;;;;;;;6.45;1.42;;;28.40;99.90;;;;;;6147099;23;20024;-58
2022/07/08 06:58:32;;;;;;;3.45;1.55;;;29.40;98.80;;;;;;6145660;23;20040;-62
2022/07/08 07:01:36;;;;;;;6.65;1.58;;;30.10;97.40;;;;;;6146481;23;20025;-62
2022/07/08 07:04:40;;;;;;;7.82;1.75;;;30.20;97.30;;;;;;6150172;23;20016;-62
2022/07/08 07:07:44;;;;;;;6.22;1.60;;;29.00;97.00;;;;;;6147108;23;20350;-57
2022/07/08 07:10:48;;;;;;;5.25;1.63;;;28.90;97.80;;;;;;6153572;23;20358;-60
2022/07/08 07:13:52;;;;;;;6.78;1.75;;;27.90;98.80;;;;;;6152271;23;20021;-62
2022/07/08 07:16:57;;;;;;;5.72;1.33;;;27.90;99.10;;;;;;6148287;23;20496;-60
2022/07/08 07:20:00;;;;;;;7.47;1.48;;;27.90;99.80;;;;;;6149191;23;20291;-57
2022/07/08 07:23:04;;;;;;;7.80;1.35;;;28.30;99.30;;;;;;6153225;23;20107;-59
2022/07/08 07:26:08;;;;;;;7.72;1.30;;;30.40;96.70;;;;;;6148513;23;20073;-60
2022/07/08 07:29:12;;;;;;;4.55;1.50;;;30.70;95.30;;;;;;6152340;23;20025;-58
2022/07/08 07:32:17;;;;;;;4.85;1.25;;;29.90;95.20;;;;;;6147445;23;20340;-59
2022/07/08 07:35:21;;;;;;;5.78;1.50;;;28.60;97.10;;;;;;6147852;23;20021;-62
2022/07/08 07:38:25;;;;;;;3.38;1.25;;;29.30;93.50;;;;;;6146583;23;20041;-60
2022/07/08 07:41:29;;;;;;;4.45;1.40;;;29.00;94.80;;;;;;6147311;23;20028;-59
2022/07/08 07:44:34;;;;;;;5.90;1.50;;;30.30;93.10;;;;;;6150696;23;20012;-58
2022/07/08 07:47:39;;;;;;;5.85;1.50;;;29.90;91.00;;;;;;6143749;23;20021;-60
2022/07/08 07:50:43;;;;;;;4.30;0.95;;;29.60;91.50;;;;;;6147342;23;20020;-61
2022/07/08 07:53:47;;;;;;;4.47;1.20;;;30.00;89.60;;;;;;6222503;22;20378;-61
2022/07/08 07:56:51;;;;;;;6.78;1.42;;;30.60;91.00;;;;;;6146461;23;20024;-61
2022/07/08 07:59:55;;;;;;;4.60;1.48;;;29.90;90.70;;;;;;6149735;23;20020;-61
2022/07/08 08:02:58;;;;;;;3.60;0.80;;;31.10;91.10;;;;;;6148419;23;20021;-61
2022/07/08 08:06:04;;;;;;;3.38;1.23;;;33.70;87.60;;;;;;6149289;23;20354;-62
2022/07/08 08:09:08;;;;;;;3.10;0.70;;;35.30;82.90;;;;;;6151824;23;20028;-58
2022/07/08 08:12:12;;;;;;;3.72;1.10;;;36.00;79.90;;;;;;6148450;23;20016;-55
2022/07/08 08:15:16;;;;;;;1.15;0.60;;;33.10;80.60;;;;;;6148213;23;20034;-60
2022/07/08 08:18:21;;;;;;;1.83;0.60;;;33.30;79.30;;;;;;6148082;23;20024;-61
2022/07/08 08:21:25;;;;;;;5.55;0.80;;;34.60;78.40;;;;;;6151207;23;20227;-62
2022/07/08 08:24:29;;;;;;;4.10;0.70;;;36.70;77.40;;;;;;6151140;23;20013;-61
2022/07/08 08:27:33;;;;;;;2.78;0.85;;;36.30;74.70;;;;;;6148005;23;20016;-58
2022/07/08 08:30:37;;;;;;;3.13;0.80;;;34.90;76.90;;;;;;6151742;23;20016;-59
2022/07/08 08:33:41;;;;;;;3.65;0.82;;;34.10;77.20;;;;;;6149757;23;20021;-61
2022/07/08 08:36:45;;;;;;;2.65;0.60;;;34.80;75.80;;;;;;6149135;23;20041;-62
2022/07/08 08:39:49;;;;;;;1.55;0.70;;;36.10;72.20;;;;;;6148510;23;20476;-62
2022/07/08 08:42:54;;;;;;;1.02;0.55;;;34.70;72.30;;;;;;6151367;23;20016;-63
2022/07/08 08:45:58;;;;;;;1.40;0.60;;;35.30;73.60;;;;;;6150731;23;20343;-62
2022/07/08 08:49:03;;;;;;;2.75;0.70;;;34.30;73.00;;;;;;6149615;23;20037;-57
2022/07/08 08:52:09;;;;;;;3.83;0.75;;;34.30;72.60;;;;;;6148129;23;20036;-62
2022/07/08 08:55:20;;;;;;;2.40;0.50;;;36.80;70.70;;;;;;6148498;22;20025;-53
2022/07/08 08:58:25;;;;;;;4.07;0.60;;;38.30;67.50;;;;;;6273126;22;20022;-55
2022/07/08 09:01:32;;;;;;;2.90;0.60;;;39.60;65.90;;;;;;6274915;22;20022;-53
2022/07/08 09:04:37;;;;;;;0.90;0.32;;;41.30;64.60;;;;;;6273893;22;20018;-52
2022/07/08 09:07:41;;;;;;;1.40;0.47;;;41.90;62.70;;;;;;6241290;23;20019;-54
2022/07/08 09:10:45;;;;;;;3.92;1.33;;;43.20;61.10;;;;;;6243039;23;20015;-56
2022/07/08 09:14:20;;;;;;;3.20;0.60;;;44.30;59.80;;;;;;6241376;23;20019;-53
2022/07/08 09:17:24;;;;;;;1.05;0.40;;;43.70;57.90;;;;;;6241235;23;20031;-56
2022/07/08 09:20:38;;;;;;;3.63;0.45;;;44.10;56.40;;;;;;6242286;23;20034;-51
2022/07/08 09:23:42;;;;;;;3.90;0.35;;;45.00;56.40;;;;;;6242832;23;20368;-55
2022/07/08 09:26:46;;;;;;;4.00;0.50;;;42.90;54.40;;;;;;6242800;23;20349;-56
2022/07/08 09:29:58;;;;;;;2.47;0.50;;;43.60;55.90;;;;;;6242782;23;20023;-55
2022/07/08 09:33:03;;;;;;;1.00;0.50;;;44.70;55.60;;;;;;6242210;23;20051;-54
2022/07/08 09:36:09;;;;;;;1.02;0.40;;;46.30;55.10;;;;;;6242683;23;20023;-53
2022/07/08 09:39:27;;;;;;;1.13;0.63;;;46.40;54.20;;;;;;6242672;23;20027;-52
2022/07/08 09:42:39;;;;;;;2.03;0.40;;;47.10;54.30;;;;;;6248228;23;20132;-56
2022/07/08 09:45:43;;;;;;;1.00;0.43;;;47.00;52.30;;;;;;6243922;23;20019;-52
2022/07/08 09:48:47;;;;;;;1.80;0.30;;;47.50;52.10;;;;;;6243061;23;20352;-55
2022/07/08 09:51:52;;;;;;;0.20;0.20;;;46.90;50.80;;;;;;6246879;23;20467;-55
2022/07/08 09:55:03;;;;;;;0.60;0.28;;;47.20;51.00;;;;;;6244662;23;20019;-51
2022/07/08 09:58:11;;;;;;;0.82;0.38;;;48.30;49.80;;;;;;6242104;23;20039;-54
2022/07/08 10:01:17;;;;;;;6.57;0.40;;;48.10;49.90;;;;;;6242279;23;20023;-54
2022/07/08 10:04:29;;;;;;;2.70;0.35;;;47.90;49.30;;;;;;6245407;23;20720;-51
2022/07/08 10:07:34;;;;;;;1.58;0.40;;;47.70;50.10;;;;;;6244837;23;20015;-52
2022/07/08 10:10:40;;;;;;;1.75;0.40;;;47.00;50.70;;;;;;6240149;23;20027;-54
2022/07/08 10:13:45;;;;;;;0.32;0.28;;;46.60;50.50;;;;;;6246146;23;20027;-52
2022/07/08 10:16:49;;;;;;;1.75;0.30;;;46.00;50.40;;;;;;6242641;23;20015;-53
2022/07/08 10:19:54;;;;;;;0.90;0.40;;;44.10;50.70;;;;;;6220703;23;20019;-54
2022/07/08 10:23:05;;;;;;;0.90;0.30;;;41.70;52.50;;;;;;6246033;23;20379;-54
2022/07/08 10:26:10;;;;;;;0.22;0.20;;;40.40;53.00;;;;;;6242907;23;20019;-54
2022/07/08 10:29:14;;;;;;;1.23;0.40;;;39.10;53.70;;;;;;6241425;23;20023;-51
2022/07/08 10:32:27;;;;;;;0.57;0.40;;;38.90;54.50;;;;;;6246586;23;20019;-54
2022/07/08 10:35:30;;;;;;;0.47;0.30;;;39.10;55.00;;;;;;6246581;23;20011;-53
2022/07/08 10:38:40;;;;;;;2.30;0.40;;;40.60;53.70;;;;;;6242799;23;20023;-51
2022/07/08 10:42:05;;;;;;;2.17;0.40;;;40.40;53.30;;;;;;6244052;23;20019;-53
2022/07/08 10:45:16;;;;;;;2.10;0.43;;;39.70;53.10;;;;;;6244932;23;20353;-53
2022/07/08 10:48:20;;;;;;;1.05;0.35;;;38.90;53.30;;;;;;6242512;23;20027;-54
2022/07/08 10:51:24;;;;;;;2.38;0.30;;;40.70;52.50;;;;;;6245211;23;20374;-51
2022/07/08 10:54:32;;;;;;;0.80;0.45;;;42.10;52.90;;;;;;6242172;23;20483;-54
2022/07/08 10:57:36;;;;;;;2.38;0.40;;;42.00;52.30;;;;;;6241233;23;20019;-55
2022/07/08 11:00:41;;;;;;;1.42;0.63;;;41.10;52.60;;;;;;6241879;23;20589;-52
2022/07/08 11:03:47;;;;;;;1.45;0.50;;;39.40;54.70;;;;;;6241239;23;20016;-55
2022/07/08 11:06:51;;;;;;;3.10;0.40;;;39.80;53.60;;;;;;6242806;23;20023;-53
2022/07/08 11:10:01;;;;;;;0.95;0.50;;;40.90;53.20;;;;;;6243222;23;20035;-53
2022/07/08 11:13:05;;;;;;;1.15;0.30;;;41.10;52.30;;;;;;6240436;23;20483;-53
2022/07/08 11:16:09;;;;;;;4.60;0.40;;;42.20;52.10;;;;;;6242948;23;20022;-54
2022/07/08 11:19:13;;;;;;;3.13;0.38;;;41.40;52.90;;;;;;6242150;23;20023;-52
2022/07/08 11:22:20;;;;;;;0.40;0.30;;;39.40;52.70;;;;;;6240880;23;20019;-54
2022/07/08 11:25:25;;;;;;;2.55;0.60;;;38.80;53.20;;;;;;6242360;23;20360;-58
2022/07/08 11:28:29;;;;;;;1.48;0.52;;;39.10;53.40;;;;;;6244370;23;20536;-52
2022/07/08 11:31:33;;;;;;;1.55;0.45;;;39.20;54.10;;;;;;6242370;23;20023;-53
2022/07/08 11:34:38;;;;;;;0.95;0.60;;;38.40;54.10;;;;;;6246545;23;20472;-55
2022/07/08 11:37:45;;;;;;;0.77;0.40;;;38.40;54.30;;;;;;6242886;23;20027;-54
2022/07/08 11:40:49;;;;;;;1.73;0.40;;;36.70;56.10;;;;;;6244580;23;20022;-55
2022/07/08 11:43:54;;;;;;;1.80;0.60;;;36.80;56.00;;;;;;6241729;23;20456;-55
2022/07/08 11:46:58;;;;;;;1.90;0.40;;;37.00;55.90;;;;;;6243121;23;20015;-55
2022/07/08 11:50:03;;;;;;;0.88;0.60;;;36.30;56.30;;;;;;6240474;23;20361;-54
2022/07/08 11:53:21;;;;;;;2.15;0.50;;;36.40;56.00;;;;;;6244631;23;20495;-55
2022/07/08 11:56:25;;;;;;;3.15;0.50;;;36.70;55.90;;;;;;6242536;23;20038;-54
2022/07/08 11:59:35;;;;;;;2.22;0.73;;;37.10;55.30;;;;;;6241924;23;20027;-55
2022/07/08 12:02:40;;;;;;;0.85;0.45;;;36.90;54.70;;;;;;6243555;23;20015;-53
2022/07/08 12:05:47;;;;;;;2.83;0.82;;;36.20;55.80;;;;;;6247361;23;20023;-53
2022/07/08 12:08:52;;;;;;;0.90;0.50;;;35.90;56.60;;;;;;6244917;23;20357;-52
2022/07/08 12:12:04;;;;;;;1.50;0.38;;;34.30;57.30;;;;;;6241869;23;20019;-51
2022/07/08 12:15:14;;;;;;;2.50;0.75;;;32.90;59.10;;;;;;6242783;23;20019;-52
2022/07/08 12:18:24;;;;;;;1.15;0.50;;;32.50;60.20;;;;;;6239415;23;20023;-56
2022/07/08 12:21:28;;;;;;;1.00;0.50;;;32.40;60.10;;;;;;6241425;23;20015;-53
2022/07/08 12:24:40;;;;;;;0.75;0.43;;;32.10;60.40;;;;;;6248674;23;20015;-51
2022/07/08 12:28:03;;;;;;;1.95;0.90;;;31.90;60.50;;;;;;6249074;23;20467;-52
2022/07/08 12:31:07;;;;;;;2.50;0.65;;;33.00;59.20;;;;;;6241828;23;20070;-52
2022/07/08 12:34:17;;;;;;;2.20;0.63;;;34.40;58.40;;;;;;6241456;23;20019;-54
2022/07/08 12:37:22;;;;;;;0.77;0.40;;;35.40;56.70;;;;;;6241563;23;20027;-53
2022/07/08 12:40:26;;;;;;;1.70;0.45;;;36.30;56.00;;;;;;6241451;23;20258;-52
2022/07/08 12:43:32;;;;;;;2.80;0.50;;;36.30;54.80;;;;;;6246146;23;20015;-53
2022/07/08 12:46:36;;;;;;;2.15;0.40;;;35.80;55.60;;;;;;6222902;23;20019;-55
2022/07/08 12:49:42;;;;;;;1.02;0.50;;;36.40;55.30;;;;;;6242893;23;20023;-52
2022/07/08 12:52:46;;;;;;;1.80;0.50;;;36.70;55.40;;;;;;6244225;23;20060;-55
2022/07/08 12:55:50;;;;;;;1.63;0.68;;;35.40;55.60;;;;;;6242549;23;20011;-55
2022/07/08 12:58:54;;;;;;;1.85;0.38;;;34.40;55.30;;;;;;6242296;23;20019;-54
2022/07/08 13:01:59;;;;;;;2.42;0.35;;;33.60;56.20;;;;;;6240611;23;20019;-55
2022/07/08 13:05:06;;;;;;;1.20;0.32;;;34.00;55.30;;;;;;6243217;23;20016;-54
2022/07/08 13:08:10;;;;;;;2.47;0.50;;;34.00;55.00;;;;;;6241783;23;20011;-53
2022/07/08 13:11:14;;;;;;;0.68;0.40;;;34.00;56.20;;;;;;6241514;23;20379;-56
2022/07/08 13:14:18;;;;;;;0.35;0.35;;;34.50;56.30;;;;;;6243004;23;20023;-56
2022/07/08 13:17:23;;;;;;;0.70;0.43;;;35.00;54.50;;;;;;6240680;23;20472;-55
2022/07/08 13:20:27;;;;;;;0.60;0.40;;;35.30;55.00;;;;;;6240063;23;20364;-55
2022/07/08 13:23:31;;;;;;;0.50;0.30;;;34.40;55.30;;;;;;6241992;23;20348;-53
2022/07/08 13:26:36;;;;;;;1.40;0.60;;;33.30;55.30;;;;;;6242019;23;20031;-52
2022/07/08 13:29:40;;;;;;;1.80;0.57;;;32.40;55.00;;;;;;6242330;23;20015;-53
2022/07/08 13:32:44;;;;;;;2.30;0.30;;;31.30;56.40;;;;;;6241698;23;20015;-52
2022/07/08 13:35:48;;;;;;;0.47;0.30;;;31.50;57.80;;;;;;6222951;23;20019;-54
2022/07/08 13:38:52;;;;;;;0.50;0.45;;;32.10;56.10;;;;;;6239556;23;20018;-53
2022/07/08 13:41:55;;;;;;;4.72;0.40;;;31.90;55.80;;;;;;6240932;23;20352;-52
2022/07/08 13:44:59;;;;;;;0.63;0.35;;;31.80;56.90;;;;;;6240579;23;20015;-52
2022/07/08 13:48:04;;;;;;;0.80;0.38;;;32.40;56.80;;;;;;6242155;23;20019;-52
2022/07/08 13:51:08;;;;;;;1.90;0.50;;;33.00;57.20;;;;;;6240619;23;20019;-51
2022/07/08 13:54:12;;;;;;;0.43;0.20;;;32.60;56.70;;;;;;6242024;23;20023;-53
2022/07/08 13:57:16;;;;;;;10.40;0.40;;;32.80;56.90;;;;;;6239774;23;20019;-54
2022/07/08 14:00:20;;;;;;;0.73;0.30;;;32.90;55.20;;;;;;6240878;23;20023;-52
2022/07/08 14:03:24;;;;;;;0.95;0.40;;;32.90;54.90;;;;;;6223032;23;20348;-52
2022/07/08 14:06:28;;;;;;;4.70;0.32;;;32.60;55.70;;;;;;6241699;23;20015;-52
2022/07/08 14:09:32;;;;;;;1.05;0.43;;;32.10;55.60;;;;;;6243729;23;20035;-51
2022/07/08 14:12:36;;;;;;;1.92;0.40;;;31.50;56.90;;;;;;6243048;23;20011;-54
2022/07/08 14:15:39;;;;;;;0.28;0.22;;;31.70;56.90;;;;;;6243092;23;20352;-56
2022/07/08 14:18:43;;;;;;;2.03;0.30;;;31.90;56.00;;;;;;6241991;23;20019;-54
2022/07/08 14:21:48;;;;;;;0.40;0.30;;;31.20;58.00;;;;;;6241539;23;20035;-52
2022/07/08 14:24:52;;;;;;;1.55;0.47;;;31.20;58.50;;;;;;6242094;23;20357;-55
2022/07/08 14:27:56;;;;;;;0.45;0.40;;;31.10;58.40;;;;;;6240805;23;20020;-56
2022/07/08 14:30:59;;;;;;;0.68;0.43;;;30.70;57.10;;;;;;6242041;23;20286;-55
2022/07/08 14:34:03;;;;;;;0.50;0.30;;;30.20;57.30;;;;;;6241501;23;20019;-55
2022/07/08 14:37:07;;;;;;;1.70;0.40;;;30.30;56.30;;;;;;6242574;23;20027;-55
2022/07/08 14:40:12;;;;;;;2.08;0.30;;;30.20;57.10;;;;;;6242081;23;20027;-55
2022/07/08 14:43:16;;;;;;;2.67;0.50;;;30.00;56.90;;;;;;6243278;23;20035;-56
2022/07/08 14:46:20;;;;;;;0.60;0.40;;;30.10;57.60;;;;;;6242731;23;20019;-55
2022/07/08 14:49:24;;;;;;;1.77;0.38;;;30.30;56.90;;;;;;6224837;23;20015;-52
2022/07/08 14:52:28;;;;;;;0.75;0.30;;;30.10;57.30;;;;;;6242355;23;20022;-55
2022/07/08 14:55:32;;;;;;;0.63;0.30;;;29.70;58.30;;;;;;6242833;23;20067;-54
2022/07/08 14:58:37;;;;;;;1.45;0.40;;;29.60;58.50;;;;;;6209939;22;20028;-52
2022/07/08 15:01:41;;;;;;;0.30;0.30;;;29.60;59.10;;;;;;6146972;23;20025;-54
2022/07/08 15:04:45;;;;;;;0.85;0.30;;;30.10;58.60;;;;;;6147581;23;20021;-53
2022/07/08 15:07:49;;;;;;;1.25;0.40;;;30.20;57.20;;;;;;6149247;23;20338;-52
2022/07/08 15:10:53;;;;;;;0.50;0.40;;;29.80;57.60;;;;;;6121163;23;20025;-54
2022/07/08 15:13:58;;;;;;;0.20;0.20;;;29.50;58.60;;;;;;6122963;23;20474;-53
2022/07/08 15:17:04;;;;;;;1.63;0.30;;;29.90;57.30;;;;;;6119224;23;20029;-51
2022/07/08 15:20:08;;;;;;;0.35;0.30;;;30.20;57.20;;;;;;6119045;23;20033;-55
2022/07/08 15:23:13;;;;;;;0.65;0.40;;;30.20;58.00;;;;;;6119222;23;20020;-55
2022/07/08 15:26:17;;;;;;;1.58;0.20;;;30.40;58.00;;;;;;6118678;23;20013;-51
2022/07/08 15:29:22;;;;;;;0.38;0.30;;;30.40;57.20;;;;;;6119352;23;20013;-52
2022/07/08 15:32:26;;;;;;;0.47;0.20;;;30.10;57.70;;;;;;6118911;23;20021;-52
2022/07/08 15:35:30;;;;;;;4.30;0.50;;;30.00;57.70;;;;;;6119351;23;20354;-52
2022/07/08 15:38:37;;;;;;;0.55;0.40;;;30.00;57.50;;;;;;6119269;23;20025;-55
2022/07/08 15:41:41;;;;;;;0.60;0.30;;;29.80;56.90;;;;;;6118787;23;20037;-54
2022/07/08 15:44:45;;;;;;;2.17;0.38;;;29.40;57.30;;;;;;6117550;23;20013;-52
2022/07/08 15:47:49;;;;;;;0.57;0.38;;;29.40;56.90;;;;;;6118665;23;20454;-51
2022/07/08 15:50:53;;;;;;;1.10;0.50;;;29.40;57.70;;;;;;6118226;23;20025;-51
2022/07/08 15:53:57;;;;;;;1.48;0.30;;;29.50;57.70;;;;;;6118005;23;20473;-51
2022/07/08 15:57:03;;;;;;;1.88;0.30;;;29.40;57.80;;;;;;6118044;23;20024;-56
2022/07/08 16:00:08;;;;;;;0.63;0.20;;;29.60;57.70;;;;;;6118059;23;20373;-55